createdAt,value
2023-07-15T00:01:37.730Z,98140.00
2023-07-15T00:04:05.830Z,98142.69
2023-07-15T00:06:32.828Z,98138.47
2023-07-15T00:09:00.253Z,98136.72
2023-07-15T00:11:31.746Z,98137.19
2023-07-15T00:13:59.494Z,98139.41
2023-07-15T00:16:31.166Z,98137.06
2023-07-15T00:18:58.501Z,98142.38
2023-07-15T00:21:32.151Z,98142.38
2023-07-15T00:24:01.778Z,98145.22
2023-07-15T00:26:35.782Z,98144.50
2023-07-15T00:29:05.545Z,98150.47
2023-07-15T00:31:33.913Z,98146.00
2023-07-15T00:34:01.426Z,98133.09
2023-07-15T00:36:28.360Z,98136.88
2023-07-15T00:38:55.157Z,98133.53
2023-07-15T00:41:28.402Z,98138.34
2023-07-15T00:43:59.970Z,98138.59
2023-07-15T00:46:58.299Z,98141.37
2023-07-15T00:49:31.877Z,98143.69
2023-07-15T00:52:06.137Z,98137.44
2023-07-15T00:54:35.631Z,98131.41
2023-07-15T00:57:02.632Z,98137.19
2023-07-15T00:59:30.907Z,98144.41
2023-07-15T01:01:58.026Z,98141.53
2023-07-15T01:04:24.975Z,98141.22
2023-07-15T01:06:51.996Z,98137.69
2023-07-15T01:09:18.894Z,98139.53
2023-07-15T01:11:45.812Z,98137.78
2023-07-15T01:14:14.299Z,98142.47
2023-07-15T01:16:42.204Z,98136.16
2023-07-15T01:19:10.022Z,98137.25
2023-07-15T01:21:37.991Z,98132.84
2023-07-15T01:24:05.200Z,98134.31
2023-07-15T01:26:32.784Z,98129.97
2023-07-15T01:28:59.845Z,98138.97
2023-07-15T01:31:28.191Z,98135.56
2023-07-15T01:33:55.215Z,98139.19
2023-07-15T01:36:22.202Z,98132.56
2023-07-15T01:38:49.417Z,98138.06
2023-07-15T01:41:16.338Z,98132.66
2023-07-15T01:43:43.253Z,98132.22
2023-07-15T01:48:37.891Z,98124.91
2023-07-15T01:51:04.776Z,98125.16
2023-07-15T01:53:31.652Z,98125.34
2023-07-15T01:55:58.536Z,98122.16
2023-07-15T01:58:25.411Z,98114.06
2023-07-15T02:00:52.367Z,98116.09
2023-07-15T02:03:19.393Z,98106.84
2023-07-15T02:05:46.586Z,98111.56
2023-07-15T02:08:13.558Z,98115.59
2023-07-15T02:10:40.417Z,98116.53
2023-07-15T02:13:07.249Z,98105.97
2023-07-15T02:15:34.188Z,98115.91
2023-07-15T02:18:01.213Z,98116.97
2023-07-15T02:20:28.091Z,98126.37
2023-07-15T02:22:54.991Z,98126.56
2023-07-15T02:25:22.001Z,98121.56
2023-07-15T02:27:51.053Z,98120.81
2023-07-15T02:30:18.152Z,98122.50
2023-07-15T02:32:45.429Z,98112.88
2023-07-15T02:35:14.993Z,98111.56
2023-07-15T02:37:45.239Z,98106.94
2023-07-15T02:40:12.748Z,98111.91
2023-07-15T02:42:40.116Z,98109.59
2023-07-15T02:45:09.287Z,98109.91
2023-07-15T02:47:38.175Z,98110.28
2023-07-15T02:50:07.927Z,98101.53
2023-07-15T02:52:36.212Z,98110.47
2023-07-15T02:55:10.428Z,98115.81
2023-07-15T02:57:37.355Z,98116.53
2023-07-15T03:00:13.113Z,98115.12
2023-07-15T03:02:40.520Z,98121.97
2023-07-15T03:05:07.997Z,98117.09
2023-07-15T03:07:35.563Z,98115.97
2023-07-15T03:10:03.552Z,98117.28
2023-07-15T03:12:30.397Z,98120.03
2023-07-15T03:14:57.372Z,98118.72
2023-07-15T03:17:24.256Z,98120.31
2023-07-15T03:19:51.177Z,98115.59
2023-07-15T03:22:18.472Z,98116.34
2023-07-15T03:24:45.421Z,98112.50
2023-07-15T03:27:12.282Z,98111.09
2023-07-15T03:29:39.184Z,98106.69
2023-07-15T03:32:06.183Z,98114.78
2023-07-15T03:34:33.141Z,98116.22
2023-07-15T03:37:00.144Z,98113.34
2023-07-15T03:39:27.066Z,98105.66
2023-07-15T03:41:53.921Z,98113.88
2023-07-15T03:44:20.831Z,98113.09
2023-07-15T03:46:47.919Z,98109.97
2023-07-15T03:49:14.937Z,98110.37
2023-07-15T03:51:41.871Z,98107.66
2023-07-15T03:54:08.785Z,98110.22
2023-07-15T03:56:35.718Z,98106.25
2023-07-15T03:59:02.864Z,98095.09
2023-07-15T04:01:29.899Z,98101.81
2023-07-15T04:03:56.879Z,98102.66
2023-07-15T04:06:24.805Z,98103.44
2023-07-15T04:08:51.750Z,98102.28
2023-07-15T04:11:19.262Z,98108.81
2023-07-15T04:13:46.519Z,98109.78
2023-07-15T04:16:14.222Z,98117.25
2023-07-15T04:18:41.573Z,98110.69
2023-07-15T04:21:08.513Z,98119.50
2023-07-15T04:23:35.505Z,98119.63
2023-07-15T04:26:03.426Z,98115.69
2023-07-15T04:28:30.297Z,98121.44
2023-07-15T04:30:57.585Z,98126.16
2023-07-15T04:33:24.511Z,98118.00
2023-07-15T04:35:51.570Z,98128.22
2023-07-15T04:38:21.759Z,98129.72
2023-07-15T04:40:48.647Z,98129.34
2023-07-15T04:43:15.535Z,98137.53
2023-07-15T04:45:42.495Z,98136.72
2023-07-15T04:48:10.107Z,98142.13
2023-07-15T04:50:37.497Z,98141.66
2023-07-15T04:53:04.389Z,98145.41
2023-07-15T04:55:31.258Z,98137.44
2023-07-15T04:57:58.207Z,98151.97
2023-07-15T05:00:25.041Z,98143.66
2023-07-15T05:02:52.396Z,98142.88
2023-07-15T05:05:19.326Z,98151.97
2023-07-15T05:07:57.603Z,98144.75
2023-07-15T05:10:26.121Z,98147.34
2023-07-15T05:12:53.083Z,98148.91
2023-07-15T05:15:20.078Z,98166.59
2023-07-15T05:17:47.035Z,98161.75
2023-07-15T05:20:18.038Z,98160.38
2023-07-15T05:22:44.969Z,98167.44
2023-07-15T05:25:15.243Z,98172.56
2023-07-15T05:27:42.311Z,98176.66
2023-07-15T05:30:10.211Z,98170.13
2023-07-15T05:32:37.850Z,98172.72
2023-07-15T05:35:05.463Z,98171.16
2023-07-15T05:37:32.418Z,98157.66
2023-07-15T05:39:59.312Z,98158.34
2023-07-15T05:42:26.236Z,98162.25
2023-07-15T05:44:53.126Z,98169.13
2023-07-15T05:47:21.102Z,98163.00
2023-07-15T05:49:48.518Z,98161.94
2023-07-15T05:52:15.491Z,98160.78
2023-07-15T05:54:42.411Z,98157.41
2023-07-15T05:57:10.095Z,98169.66
2023-07-15T05:59:37.022Z,98168.09
2023-07-15T06:02:04.109Z,98165.75
2023-07-15T06:04:31.096Z,98162.78
2023-07-15T06:06:58.171Z,98171.84
2023-07-15T06:09:25.081Z,98169.47
2023-07-15T06:11:51.989Z,98165.38
2023-07-15T06:14:18.876Z,98164.13
2023-07-15T06:16:45.810Z,98162.97
2023-07-15T06:19:12.754Z,98164.87
2023-07-15T06:21:41.837Z,98166.94
2023-07-15T06:24:08.951Z,98171.53
2023-07-15T06:26:35.938Z,98170.81
2023-07-15T06:29:05.742Z,98179.44
2023-07-15T06:31:32.651Z,98175.59
2023-07-15T06:33:59.595Z,98180.91
2023-07-15T06:36:26.505Z,98179.78
2023-07-15T06:38:53.364Z,98181.84
2023-07-15T06:41:20.299Z,98185.72
2023-07-15T06:43:47.187Z,98193.81
2023-07-15T06:46:14.082Z,98193.31
2023-07-15T06:48:41.009Z,98188.41
2023-07-15T06:51:07.973Z,98180.03
2023-07-15T06:53:34.859Z,98189.81
2023-07-15T06:56:18.140Z,98182.09
2023-07-15T06:58:46.769Z,98187.66
2023-07-15T07:01:14.003Z,98195.28
2023-07-15T07:03:41.193Z,98194.91
2023-07-15T07:06:08.210Z,98187.91
2023-07-15T07:08:35.250Z,98190.00
2023-07-15T07:11:02.565Z,98180.75
2023-07-15T07:13:29.642Z,98193.31
2023-07-15T07:15:59.938Z,98180.09
2023-07-15T07:18:27.351Z,98181.72
2023-07-15T07:21:00.271Z,98190.53
2023-07-15T07:23:27.418Z,98184.84
2023-07-15T07:25:54.548Z,98186.63
2023-07-15T07:28:27.848Z,98185.03
2023-07-15T07:30:55.005Z,98183.41
2023-07-15T07:33:21.910Z,98193.50
2023-07-15T07:35:48.842Z,98190.03
2023-07-15T07:38:15.751Z,98190.19
2023-07-15T07:40:47.542Z,98188.03
2023-07-15T07:43:14.493Z,98178.53
2023-07-15T07:45:41.476Z,98179.91
2023-07-15T07:48:08.489Z,98183.53
2023-07-15T07:50:36.750Z,98184.00
2023-07-15T07:53:03.682Z,98190.56
2023-07-15T07:55:30.599Z,98184.97
2023-07-15T07:57:57.841Z,98185.38
2023-07-15T08:00:24.681Z,98188.19
2023-07-15T08:02:51.641Z,98197.94
2023-07-15T08:05:19.370Z,98197.47
2023-07-15T08:07:46.306Z,98197.56
2023-07-15T08:10:13.198Z,98191.34
2023-07-15T08:12:40.085Z,98200.09
2023-07-15T08:15:08.933Z,98203.22
2023-07-15T08:17:37.273Z,98204.25
2023-07-15T08:20:05.194Z,98195.59
2023-07-15T08:22:32.137Z,98200.78
2023-07-15T08:24:59.036Z,98202.50
2023-07-15T08:27:25.901Z,98202.37
2023-07-15T08:29:52.959Z,98205.91
2023-07-15T08:32:19.900Z,98204.66
2023-07-15T08:35:04.430Z,98203.91
2023-07-15T08:37:31.704Z,98206.72
2023-07-15T08:39:58.569Z,98204.50
2023-07-15T08:42:25.716Z,98210.72
2023-07-15T08:44:52.909Z,98207.22
2023-07-15T08:47:21.871Z,98210.41
2023-07-15T08:49:50.080Z,98207.78
2023-07-15T08:52:22.009Z,98213.25
2023-07-15T08:54:50.139Z,98213.81
2023-07-15T08:57:21.553Z,98205.47
2023-07-15T08:59:49.989Z,98211.97
2023-07-15T09:02:17.271Z,98220.16
2023-07-15T09:04:44.205Z,98208.44
2023-07-15T09:07:11.138Z,98206.81
2023-07-15T09:09:39.925Z,98212.97
2023-07-15T09:12:11.311Z,98217.25
2023-07-15T09:14:52.760Z,98219.91
2023-07-15T09:17:21.828Z,98210.16
2023-07-15T09:19:49.336Z,98206.78
2023-07-15T09:22:17.141Z,98213.75
2023-07-15T09:24:44.168Z,98209.44
2023-07-15T09:27:11.287Z,98208.81
2023-07-15T09:29:38.467Z,98206.94
2023-07-15T09:32:07.590Z,98207.53
2023-07-15T09:34:40.474Z,98207.31
2023-07-15T09:37:07.480Z,98206.72
2023-07-15T09:39:34.376Z,98207.97
2023-07-15T09:42:05.668Z,98210.37
2023-07-15T09:44:45.190Z,98193.00
2023-07-15T09:47:12.091Z,98211.38
2023-07-15T09:49:39.235Z,98208.41
2023-07-15T09:52:07.343Z,98209.50
2023-07-15T09:54:35.012Z,98209.47
2023-07-15T09:57:05.628Z,98205.75
2023-07-15T09:59:38.328Z,98201.53
2023-07-15T10:02:06.973Z,98207.09
2023-07-15T10:04:39.101Z,98210.94
2023-07-15T10:07:06.400Z,98211.09
2023-07-15T10:09:33.304Z,98202.91
2023-07-15T10:12:01.301Z,98206.28
2023-07-15T10:14:31.509Z,98212.63
2023-07-15T10:17:16.936Z,98209.34
2023-07-15T10:19:51.921Z,98213.88
2023-07-15T10:22:22.496Z,98216.75
2023-07-15T10:24:57.370Z,98209.34
2023-07-15T10:27:31.614Z,98212.03
2023-07-15T10:30:17.422Z,98217.59
2023-07-15T10:33:13.983Z,98214.81
2023-07-15T10:35:43.936Z,98217.50
2023-07-15T10:38:21.099Z,98209.94
2023-07-15T10:40:57.668Z,98205.16
2023-07-15T10:43:36.825Z,98196.94
2023-07-15T10:46:09.056Z,98203.41
2023-07-15T10:48:36.477Z,98203.97
2023-07-15T10:51:10.393Z,98201.38
2023-07-15T10:53:37.936Z,98196.00
2023-07-15T10:56:06.264Z,98199.19
2023-07-15T10:58:34.803Z,98202.53
2023-07-15T11:01:04.924Z,98204.72
2023-07-15T11:03:33.904Z,98206.44
2023-07-15T11:06:03.090Z,98204.38
2023-07-15T11:08:31.406Z,98196.38
2023-07-15T11:11:02.048Z,98202.72
2023-07-15T11:13:29.362Z,98201.69
2023-07-15T11:15:56.968Z,98205.47
2023-07-15T11:18:25.626Z,98201.84
2023-07-15T11:21:00.246Z,98198.62
2023-07-15T11:23:31.324Z,98196.94
2023-07-15T11:25:58.931Z,98194.75
2023-07-15T11:28:26.176Z,98197.41
2023-07-15T11:30:53.380Z,98186.87
2023-07-15T11:33:20.426Z,98180.25
2023-07-15T11:35:47.785Z,98182.31
2023-07-15T11:38:16.269Z,98175.31
2023-07-15T11:41:09.589Z,98180.84
2023-07-15T11:43:36.454Z,98175.53
2023-07-15T11:46:03.459Z,98173.03
2023-07-15T11:48:33.003Z,98169.97
2023-07-15T11:51:09.774Z,98171.31
2023-07-15T11:53:39.044Z,98177.06
2023-07-15T11:56:09.844Z,98173.94
2023-07-15T11:58:39.777Z,98168.47
2023-07-15T12:01:07.257Z,98170.28
2023-07-15T12:03:34.262Z,98167.59
2023-07-15T12:06:01.307Z,98166.38
2023-07-15T12:08:28.327Z,98167.38
2023-07-15T12:10:56.351Z,98161.22
2023-07-15T12:13:23.551Z,98167.31
2023-07-15T12:15:50.409Z,98160.28
2023-07-15T12:18:17.623Z,98160.38
2023-07-15T12:20:44.528Z,98164.31
2023-07-15T12:23:11.386Z,98159.38
2023-07-15T12:25:38.321Z,98159.88
2023-07-15T12:28:05.431Z,98157.84
2023-07-15T12:30:32.312Z,98150.00
2023-07-15T12:32:59.286Z,98144.22
2023-07-15T12:35:26.233Z,98153.12
2023-07-15T12:37:53.108Z,98147.00
2023-07-15T12:40:19.990Z,98136.31
2023-07-15T12:42:46.892Z,98136.75
2023-07-15T12:45:16.276Z,98142.28
2023-07-15T12:47:43.283Z,98138.59
2023-07-15T12:50:10.553Z,98133.03
2023-07-15T12:52:37.485Z,98130.59
2023-07-15T12:55:06.230Z,98127.94
2023-07-15T12:57:33.121Z,98133.66
2023-07-15T12:59:59.977Z,98124.44
2023-07-15T13:02:27.040Z,98125.00
2023-07-15T13:04:54.020Z,98126.22
2023-07-15T13:07:23.034Z,98121.50
2023-07-15T13:09:50.004Z,98119.66
2023-07-15T13:12:16.906Z,98123.97
2023-07-15T13:14:43.747Z,98114.34
2023-07-15T13:17:10.626Z,98118.87
2023-07-15T13:19:37.498Z,98121.97
2023-07-15T13:22:04.637Z,98120.09
2023-07-15T13:24:31.542Z,98117.59
2023-07-15T13:26:58.438Z,98108.16
2023-07-15T13:29:25.460Z,98114.53
2023-07-15T13:31:52.422Z,98113.06
2023-07-15T13:34:19.336Z,98105.09
2023-07-15T13:36:47.207Z,98103.34
2023-07-15T13:39:35.014Z,98103.34
2023-07-15T13:42:02.035Z,98106.06
2023-07-15T13:44:29.110Z,98113.28
2023-07-15T13:46:56.035Z,98109.00
2023-07-15T13:49:22.886Z,98090.19
2023-07-15T13:51:49.810Z,98100.34
2023-07-15T13:54:17.133Z,98096.56
2023-07-15T13:56:44.011Z,98100.34
2023-07-15T13:59:10.901Z,98109.59
2023-07-15T14:01:37.780Z,98098.41
2023-07-15T14:04:06.568Z,98092.84
2023-07-15T14:06:33.561Z,98093.16
2023-07-15T14:09:00.434Z,98092.72
2023-07-15T14:11:27.559Z,98093.53
2023-07-15T14:13:54.646Z,98087.66
2023-07-15T14:16:21.719Z,98084.28
2023-07-15T14:18:48.592Z,98087.34
2023-07-15T14:21:15.801Z,98074.78
2023-07-15T14:23:42.993Z,98073.16
2023-07-15T14:26:09.907Z,98080.97
2023-07-15T14:28:37.682Z,98076.28
2023-07-15T14:31:04.586Z,98073.56
2023-07-15T14:33:31.535Z,98069.59
2023-07-15T14:35:59.087Z,98070.38
2023-07-15T14:38:26.054Z,98060.34
2023-07-15T14:40:53.034Z,98062.81
2023-07-15T14:43:19.980Z,98059.56
2023-07-15T14:45:47.059Z,98053.28
2023-07-15T14:48:13.942Z,98050.44
2023-07-15T14:50:40.989Z,98057.22
2023-07-15T14:53:08.575Z,98051.47
2023-07-15T14:55:35.949Z,98056.59
2023-07-15T14:58:03.129Z,98056.56
2023-07-15T15:00:30.284Z,98041.81
2023-07-15T15:02:57.355Z,98038.62
2023-07-15T15:05:25.196Z,98027.91
2023-07-15T15:07:52.078Z,98037.84
2023-07-15T15:10:19.004Z,98036.22
2023-07-15T15:12:45.899Z,98032.75
2023-07-15T15:15:12.785Z,98033.16
2023-07-15T15:17:39.712Z,98031.72
2023-07-15T15:20:07.684Z,98035.44
2023-07-15T15:22:34.628Z,98028.03
2023-07-15T15:25:04.398Z,98025.34
2023-07-15T15:27:31.671Z,98025.09
2023-07-15T15:29:58.562Z,98024.66
2023-07-15T15:32:25.649Z,98026.78
2023-07-15T15:34:52.644Z,98029.06
2023-07-15T15:37:19.636Z,98022.50
2023-07-15T15:39:46.640Z,98020.56
2023-07-15T15:42:13.518Z,98026.59
2023-07-15T15:44:40.442Z,98015.88
2023-07-15T15:47:08.133Z,98020.78
2023-07-15T15:49:35.000Z,98023.91
2023-07-15T15:52:01.881Z,98025.78
2023-07-15T15:54:28.806Z,98021.03
2023-07-15T15:56:56.208Z,98025.94
2023-07-15T15:59:23.204Z,98020.59
2023-07-15T16:01:50.104Z,98016.91
2023-07-15T16:04:17.081Z,98011.19
2023-07-15T16:06:44.120Z,98017.16
2023-07-15T16:09:11.141Z,98010.38
2023-07-15T16:11:39.265Z,98011.41
2023-07-15T16:14:06.233Z,98013.44
2023-07-15T16:16:33.195Z,98012.41
2023-07-15T16:19:01.977Z,98008.31
2023-07-15T16:21:28.869Z,98005.78
2023-07-15T16:23:55.720Z,98004.19
2023-07-15T16:26:22.687Z,98002.56
2023-07-15T16:28:49.623Z,98007.44
2023-07-15T16:31:16.820Z,97998.84
2023-07-15T16:33:44.098Z,98007.84
2023-07-15T16:36:10.952Z,98010.75
2023-07-15T16:38:37.886Z,98002.09
2023-07-15T16:41:04.755Z,98007.81
2023-07-15T16:43:31.664Z,98003.94
2023-07-15T16:45:58.596Z,98008.00
2023-07-15T16:48:25.509Z,98001.81
2023-07-15T16:50:52.392Z,98005.78
2023-07-15T16:53:19.334Z,98009.91
2023-07-15T16:55:46.232Z,98008.00
2023-07-15T16:58:13.133Z,98012.13
2023-07-15T17:00:40.031Z,98011.13
2023-07-15T17:03:07.044Z,98018.09
2023-07-15T17:05:34.000Z,98018.91
2023-07-15T17:08:01.001Z,98007.41
2023-07-15T17:10:27.903Z,98011.84
2023-07-15T17:12:54.758Z,98006.28
2023-07-15T17:15:21.672Z,98012.75
2023-07-15T17:17:48.601Z,98002.88
2023-07-15T17:20:15.493Z,97999.84
2023-07-15T17:22:42.436Z,97995.03
2023-07-15T17:25:09.784Z,98002.72
2023-07-15T17:27:36.786Z,98006.38
2023-07-15T17:30:04.053Z,97991.78
2023-07-15T17:32:30.958Z,98004.56
2023-07-15T17:34:57.892Z,98003.16
2023-07-15T17:37:28.415Z,98009.63
2023-07-15T17:39:55.579Z,98011.16
2023-07-15T17:42:22.488Z,98006.25
2023-07-15T17:44:49.393Z,98001.81
2023-07-15T17:47:16.420Z,98005.63
2023-07-15T17:49:43.335Z,97997.59
2023-07-15T17:52:10.409Z,97994.75
2023-07-15T17:54:37.304Z,97998.78
2023-07-15T17:57:04.424Z,98002.69
2023-07-15T17:59:31.307Z,97997.41
2023-07-15T18:01:58.203Z,97994.03
2023-07-15T18:04:25.108Z,97993.81
2023-07-15T18:06:51.993Z,97994.53
2023-07-15T18:09:19.017Z,97991.00
2023-07-15T18:11:45.904Z,97993.00
2023-07-15T18:14:12.802Z,97990.34
2023-07-15T18:16:39.774Z,97996.84
2023-07-15T18:19:06.730Z,97999.47
2023-07-15T18:21:33.598Z,97994.56
2023-07-15T18:24:00.442Z,97998.44
2023-07-15T18:26:27.292Z,98001.88
2023-07-15T18:28:54.158Z,97997.37
2023-07-15T18:31:21.164Z,98006.34
2023-07-15T18:33:48.070Z,98004.00
2023-07-15T18:36:14.945Z,98007.88
2023-07-15T18:38:41.882Z,98001.81
2023-07-15T18:41:08.761Z,98006.44
2023-07-15T18:43:35.638Z,98002.69
2023-07-15T18:46:02.520Z,97999.56
2023-07-15T18:48:29.463Z,97994.63
2023-07-15T18:50:56.348Z,97998.38
2023-07-15T18:53:23.210Z,97998.41
2023-07-15T18:55:50.171Z,98005.31
2023-07-15T18:58:17.276Z,98004.28
2023-07-15T19:00:44.158Z,97998.03
2023-07-15T19:03:11.182Z,98002.13
2023-07-15T19:05:39.098Z,97999.72
2023-07-15T19:08:06.097Z,97999.47
2023-07-15T19:10:33.019Z,98009.81
2023-07-15T19:12:59.921Z,98004.69
2023-07-15T19:15:26.837Z,98010.06
2023-07-15T19:17:53.777Z,98010.25
2023-07-15T19:20:20.766Z,98004.41
2023-07-15T19:22:47.643Z,98006.97
2023-07-15T19:25:14.576Z,98006.19
2023-07-15T19:27:41.468Z,98001.59
2023-07-15T19:30:08.972Z,98003.94
2023-07-15T19:32:36.015Z,98007.78
2023-07-15T19:35:02.968Z,98002.47
2023-07-15T19:37:29.869Z,98006.44
2023-07-15T19:39:56.815Z,98000.94
2023-07-15T19:42:23.737Z,98006.59
2023-07-15T19:44:50.593Z,97997.72
2023-07-15T19:47:17.554Z,98005.44
2023-07-15T19:49:44.517Z,98004.13
2023-07-15T19:52:11.434Z,98000.03
2023-07-15T19:54:38.323Z,97999.75
2023-07-15T19:57:05.585Z,97998.94
2023-07-15T19:59:32.714Z,97998.22
2023-07-15T20:01:59.695Z,98003.69
2023-07-15T20:04:26.654Z,97991.91
2023-07-15T20:06:55.750Z,98008.38
2023-07-15T20:09:24.112Z,98005.31
2023-07-15T20:11:55.511Z,98005.38
2023-07-15T20:14:22.592Z,98015.62
2023-07-15T20:16:49.559Z,98006.31
2023-07-15T20:19:16.583Z,98009.78
2023-07-15T20:21:43.513Z,98006.38
2023-07-15T20:24:10.413Z,98006.31
2023-07-15T20:26:37.315Z,98004.75
2023-07-15T20:29:04.148Z,98011.00
2023-07-15T20:31:31.035Z,98004.28
2023-07-15T20:33:57.999Z,98005.06
2023-07-15T20:36:24.842Z,97997.84
2023-07-15T20:38:51.776Z,97992.03
2023-07-15T20:41:20.251Z,97998.44
2023-07-15T20:43:47.218Z,98002.66
2023-07-15T20:46:14.374Z,98009.28
2023-07-15T20:48:41.628Z,98006.31
2023-07-15T20:51:09.667Z,97999.44
2023-07-15T20:53:36.700Z,97994.78
2023-07-15T20:56:03.720Z,97996.37
2023-07-15T20:58:30.640Z,97995.72
2023-07-15T21:00:57.511Z,97995.44
2023-07-15T21:03:24.457Z,97997.06
2023-07-15T21:06:05.182Z,97995.50
2023-07-15T21:08:32.473Z,98002.22
2023-07-15T21:11:01.017Z,98003.97
2023-07-15T21:13:28.706Z,97992.59
2023-07-15T21:15:55.822Z,97998.41
2023-07-15T21:18:24.749Z,97988.00
2023-07-15T21:20:52.226Z,97998.56
2023-07-15T21:23:19.439Z,97992.81
2023-07-15T21:25:47.469Z,98003.41
2023-07-15T21:28:14.377Z,98003.41
2023-07-15T21:30:45.040Z,98007.84
2023-07-15T21:33:11.979Z,97999.78
2023-07-15T21:35:38.877Z,97991.00
2023-07-15T21:38:05.765Z,97995.75
2023-07-15T21:40:33.801Z,97999.91
2023-07-15T21:43:00.960Z,98003.06
2023-07-15T21:45:27.823Z,98001.09
2023-07-15T21:47:54.712Z,98004.06
2023-07-15T21:50:21.644Z,98001.72
2023-07-15T21:52:48.518Z,98004.63
2023-07-15T21:55:15.469Z,98004.84
2023-07-15T21:57:42.356Z,98000.03
2023-07-15T22:00:15.510Z,97991.09
2023-07-15T22:02:43.305Z,97995.87
2023-07-15T22:05:10.902Z,97996.84
2023-07-15T22:07:38.172Z,97997.44
2023-07-15T22:10:06.208Z,97993.31
2023-07-15T22:12:33.825Z,98000.50
2023-07-15T22:15:01.029Z,97991.28
2023-07-15T22:17:27.996Z,97992.16
2023-07-15T22:19:54.945Z,97988.81
2023-07-15T22:22:21.903Z,97990.94
2023-07-15T22:24:49.610Z,97992.12
2023-07-15T22:27:17.124Z,97994.91
2023-07-15T22:29:44.302Z,97989.91
2023-07-15T22:32:11.277Z,97988.22
2023-07-15T22:34:38.200Z,97986.41
2023-07-15T22:37:06.223Z,97985.31
2023-07-15T22:39:33.583Z,97990.19
2023-07-15T22:42:00.566Z,97986.44
2023-07-15T22:44:27.479Z,97982.66
2023-07-15T22:46:54.430Z,97986.03
2023-07-15T22:49:21.360Z,97981.19
2023-07-15T22:51:48.230Z,97980.38
2023-07-15T22:54:15.137Z,97979.31
2023-07-15T22:56:42.057Z,97963.56
2023-07-15T22:59:08.977Z,97965.28
2023-07-15T23:01:36.129Z,97969.84
2023-07-15T23:04:03.192Z,97967.50
2023-07-15T23:06:30.094Z,97965.94
2023-07-15T23:08:57.013Z,97959.37
2023-07-15T23:11:23.908Z,97962.28
2023-07-15T23:13:50.774Z,97961.81
2023-07-15T23:16:18.881Z,97958.34
2023-07-15T23:18:47.568Z,97951.03
2023-07-15T23:21:14.825Z,97953.00
2023-07-15T23:23:42.789Z,97954.78
2023-07-15T23:26:09.701Z,97944.50
2023-07-15T23:28:36.647Z,97945.81
2023-07-15T23:31:03.593Z,97941.78
2023-07-15T23:33:30.490Z,97949.06
2023-07-15T23:35:57.419Z,97939.41
2023-07-15T23:38:24.448Z,97946.56
2023-07-15T23:40:51.775Z,97939.22
2023-07-15T23:43:18.633Z,97937.34
2023-07-15T23:45:45.493Z,97940.41
2023-07-15T23:48:12.446Z,97932.66
2023-07-15T23:50:39.381Z,97938.59
2023-07-15T23:53:06.365Z,97935.97
2023-07-15T23:55:33.290Z,97926.75
2023-07-15T23:58:01.171Z,97926.72
